createdAt,value
2019-03-20T00:00:20.378Z,100.00
2019-03-20T00:02:49.154Z,100.00
2019-03-20T00:05:17.528Z,100.00
2019-03-20T00:07:45.817Z,100.00
2019-03-20T00:10:14.184Z,100.00
2019-03-20T00:12:42.690Z,100.00
2019-03-20T00:15:13.298Z,100.00
2019-03-20T00:17:41.591Z,100.00
2019-03-20T00:20:15.994Z,100.00
2019-03-20T00:22:44.384Z,100.00
2019-03-20T00:25:12.825Z,100.00
2019-03-20T00:27:41.259Z,100.00
2019-03-20T00:30:19.675Z,100.00
2019-03-20T00:32:48.099Z,100.00
2019-03-20T00:35:16.564Z,100.00
2019-03-20T00:37:44.971Z,100.00
2019-03-20T00:40:17.099Z,100.00
2019-03-20T00:42:45.449Z,100.00
2019-03-20T00:45:16.298Z,100.00
2019-03-20T00:47:44.639Z,100.00
2019-03-20T00:50:18.034Z,100.00
2019-03-20T00:52:46.329Z,100.00
2019-03-20T00:55:16.538Z,100.00
2019-03-20T00:57:45.056Z,100.00
2019-03-20T01:00:18.939Z,100.00
2019-03-20T01:02:47.271Z,100.00
2019-03-20T01:05:15.620Z,100.00
2019-03-20T01:07:44.275Z,100.00
2019-03-20T01:10:23.806Z,100.00
2019-03-20T01:12:52.193Z,100.00
2019-03-20T01:15:20.591Z,100.00
2019-03-20T01:17:50.561Z,100.00
2019-03-20T01:20:20.026Z,100.00
2019-03-20T01:22:48.334Z,100.00
2019-03-20T01:25:17.573Z,100.00
2019-03-20T01:27:45.961Z,100.00
2019-03-20T01:30:30.938Z,100.00
2019-03-20T01:33:03.767Z,100.00
2019-03-20T01:35:32.187Z,100.00
2019-03-20T01:38:00.469Z,100.00
2019-03-20T01:40:28.780Z,100.00
2019-03-20T01:42:57.102Z,100.00
2019-03-20T01:45:25.406Z,100.00
2019-03-20T01:47:53.752Z,100.00
2019-03-20T01:50:22.143Z,100.00
2019-03-20T01:52:52.526Z,100.00
2019-03-20T01:55:20.887Z,100.00
2019-03-20T01:57:49.293Z,100.00
2019-03-20T02:00:17.631Z,100.00
2019-03-20T02:02:45.967Z,100.00
2019-03-20T02:05:14.230Z,100.00
2019-03-20T02:07:42.598Z,100.00
2019-03-20T02:10:16.296Z,100.00
2019-03-20T02:12:44.600Z,100.00
2019-03-20T02:15:14.976Z,100.00
2019-03-20T02:17:43.390Z,100.00
2019-03-20T02:20:16.895Z,100.00
2019-03-20T02:22:45.263Z,100.00
2019-03-20T02:25:13.893Z,100.00
2019-03-20T02:27:42.146Z,100.00
2019-03-20T02:30:13.495Z,100.00
2019-03-20T02:32:41.900Z,100.00
2019-03-20T02:35:10.353Z,100.00
2019-03-20T02:37:40.297Z,100.00
2019-03-20T02:40:14.845Z,100.00
2019-03-20T02:42:43.317Z,100.00
2019-03-20T02:45:13.329Z,100.00
2019-03-20T02:47:41.709Z,100.00
2019-03-20T02:50:10.842Z,100.00
2019-03-20T02:52:39.183Z,100.00
2019-03-20T02:55:09.118Z,100.00
2019-03-20T02:57:37.432Z,100.00
2019-03-20T03:00:16.462Z,100.00
2019-03-20T03:02:44.806Z,100.00
2019-03-20T03:05:13.448Z,100.00
2019-03-20T03:07:41.756Z,100.00
2019-03-20T03:10:14.608Z,100.00
2019-03-20T03:12:42.959Z,100.00
2019-03-20T03:15:12.366Z,100.00
2019-03-20T03:17:40.856Z,100.00
2019-03-20T03:20:13.509Z,100.00
2019-03-20T03:22:41.973Z,100.00
2019-03-20T03:25:11.331Z,100.00
2019-03-20T03:27:39.699Z,100.00
2019-03-20T03:30:17.515Z,100.00
2019-03-20T03:32:46.056Z,100.00
2019-03-20T03:35:17.711Z,100.00
2019-03-20T03:37:44.500Z,100.00
2019-03-20T03:40:14.647Z,100.00
2019-03-20T03:42:42.936Z,100.00
2019-03-20T03:45:12.996Z,100.00
2019-03-20T03:47:42.233Z,100.00
2019-03-20T03:50:10.843Z,100.00
2019-03-20T03:52:39.112Z,100.00
2019-03-20T03:55:09.837Z,100.00
2019-03-20T03:57:38.201Z,100.00
2019-03-20T04:00:09.990Z,100.00
2019-03-20T04:02:38.357Z,100.00
2019-03-20T04:05:06.678Z,100.00
2019-03-20T04:07:35.066Z,100.00
2019-03-20T04:10:04.457Z,100.00
2019-03-20T04:12:32.717Z,100.00
2019-03-20T04:15:01.004Z,100.00
2019-03-20T04:17:29.285Z,100.00
2019-03-20T04:19:57.573Z,100.00
2019-03-20T04:22:25.953Z,100.00
2019-03-20T04:24:54.342Z,100.00
2019-03-20T04:27:22.651Z,100.00
2019-03-20T04:29:50.992Z,100.00
2019-03-20T04:32:19.295Z,100.00
2019-03-20T04:34:47.719Z,100.00
2019-03-20T04:37:15.992Z,100.00
2019-03-20T04:39:44.362Z,100.00
2019-03-20T04:42:12.741Z,100.00
2019-03-20T04:44:41.110Z,100.00
2019-03-20T04:47:09.397Z,100.00
2019-03-20T04:49:37.777Z,100.00
2019-03-20T04:52:06.200Z,100.00
2019-03-20T04:54:34.583Z,100.00
2019-03-20T04:57:02.958Z,100.00
2019-03-20T04:59:31.328Z,100.00
2019-03-20T05:01:59.637Z,100.00
2019-03-20T05:04:27.927Z,100.00
2019-03-20T05:06:59.221Z,100.00
2019-03-20T05:09:26.281Z,100.00
2019-03-20T05:11:54.577Z,100.00
2019-03-20T05:14:22.990Z,100.00
2019-03-20T05:16:52.442Z,100.00
2019-03-20T05:19:20.876Z,100.00
2019-03-20T05:21:49.131Z,100.00
2019-03-20T05:24:17.451Z,100.00
2019-03-20T05:26:45.794Z,100.00
2019-03-20T05:29:14.105Z,100.00
2019-03-20T05:31:42.372Z,100.00
2019-03-20T05:34:10.724Z,100.00
2019-03-20T05:36:39.110Z,100.00
2019-03-20T05:39:07.732Z,100.00
2019-03-20T05:41:35.990Z,100.00
2019-03-20T05:44:04.288Z,100.00
2019-03-20T05:46:32.659Z,100.00
2019-03-20T05:49:01.009Z,100.00
2019-03-20T05:51:29.346Z,100.00
2019-03-20T05:53:57.645Z,100.00
2019-03-20T05:56:25.937Z,100.00
2019-03-20T05:58:54.254Z,100.00
2019-03-20T06:01:22.708Z,100.00
2019-03-20T06:03:50.993Z,100.00
2019-03-20T06:06:19.306Z,100.00
2019-03-20T06:08:47.681Z,100.00
2019-03-20T06:11:17.695Z,100.00
2019-03-20T06:13:46.041Z,100.00
2019-03-20T06:16:14.460Z,100.00
2019-03-20T06:18:42.918Z,100.00
2019-03-20T06:21:11.419Z,100.00
2019-03-20T06:23:39.696Z,100.00
2019-03-20T06:26:08.129Z,100.00
2019-03-20T06:28:36.536Z,100.00
2019-03-20T06:31:04.902Z,100.00
2019-03-20T06:33:33.217Z,100.00
2019-03-20T06:36:02.668Z,100.00
2019-03-20T06:38:30.989Z,100.00
2019-03-20T06:40:59.279Z,100.00
2019-03-20T06:43:27.544Z,100.00
2019-03-20T06:45:55.862Z,100.00
2019-03-20T06:48:24.297Z,100.00
2019-03-20T06:50:52.553Z,100.00
2019-03-20T06:53:20.895Z,100.00
2019-03-20T06:55:49.214Z,100.00
2019-03-20T06:58:17.561Z,100.00
2019-03-20T07:00:49.129Z,100.00
2019-03-20T07:03:23.442Z,100.00
2019-03-20T07:06:00.685Z,100.00
2019-03-20T07:08:32.226Z,100.00
2019-03-20T07:11:11.768Z,100.00
2019-03-20T07:13:40.163Z,100.00
2019-03-20T07:16:10.541Z,100.00
2019-03-20T07:18:38.831Z,100.00
2019-03-20T07:21:07.215Z,100.00
2019-03-20T07:23:35.493Z,100.00
2019-03-20T07:26:03.871Z,100.00
2019-03-20T07:28:32.249Z,100.00
2019-03-20T07:31:00.548Z,100.00
2019-03-20T07:33:28.804Z,100.00
2019-03-20T07:35:57.130Z,100.00
2019-03-20T07:38:25.392Z,100.00
2019-03-20T07:40:53.854Z,100.00
2019-03-20T07:43:22.171Z,100.00
2019-03-20T07:45:50.431Z,100.00
2019-03-20T07:48:22.271Z,100.00
2019-03-20T07:50:48.691Z,100.00
2019-03-20T07:53:16.982Z,100.00
2019-03-20T07:55:45.248Z,100.00
2019-03-20T07:58:13.511Z,100.00
2019-03-20T08:00:41.807Z,100.00
2019-03-20T08:03:10.067Z,100.00
2019-03-20T08:05:38.333Z,100.00
2019-03-20T08:08:07.866Z,100.00
2019-03-20T08:10:36.334Z,100.00
2019-03-20T08:13:04.627Z,100.00
2019-03-20T08:15:32.890Z,100.00
2019-03-20T08:18:01.184Z,100.00
2019-03-20T08:20:30.375Z,100.00
2019-03-20T08:22:58.630Z,100.00
2019-03-20T08:25:26.893Z,100.00
2019-03-20T08:27:55.178Z,100.00
2019-03-20T08:30:23.458Z,100.00
2019-03-20T08:32:51.726Z,100.00
2019-03-20T08:35:19.987Z,100.00
2019-03-20T08:37:48.277Z,100.00
2019-03-20T08:40:17.578Z,100.00
2019-03-20T08:45:31.770Z,96.11
2019-03-20T08:48:00.072Z,100.00
2019-03-20T08:50:28.318Z,95.64
2019-03-20T08:52:56.621Z,93.98
2019-03-20T08:55:24.915Z,86.64
2019-03-20T08:57:53.254Z,87.11
2019-03-20T09:00:25.291Z,79.96
2019-03-20T09:02:53.536Z,74.70
2019-03-20T09:05:21.790Z,72.33
2019-03-20T09:07:50.121Z,71.39
2019-03-20T09:10:26.359Z,66.63
2019-03-20T09:12:54.690Z,65.17
2019-03-20T09:15:22.954Z,67.38
2019-03-20T09:17:51.254Z,71.29
2019-03-20T09:20:24.061Z,63.94
2019-03-20T09:22:52.354Z,63.12
2019-03-20T09:25:21.731Z,60.43
2019-03-20T09:27:49.987Z,61.50
2019-03-20T09:30:21.537Z,59.65
2019-03-20T09:32:49.792Z,54.65
2019-03-20T09:35:18.050Z,53.93
2019-03-20T09:37:51.898Z,51.33
2019-03-20T09:40:24.749Z,53.56
2019-03-20T09:42:53.012Z,51.75
2019-03-20T09:45:22.142Z,46.35
2019-03-20T09:47:50.414Z,48.42
2019-03-20T09:50:25.901Z,48.36
2019-03-20T09:52:54.154Z,46.91
2019-03-20T09:55:22.420Z,44.51
2019-03-20T09:57:50.668Z,45.83
2019-03-20T10:00:22.915Z,47.12
2019-03-20T10:02:51.168Z,47.56
2019-03-20T10:05:19.497Z,48.05
2019-03-20T10:07:47.747Z,45.35
2019-03-20T10:10:22.828Z,40.63
2019-03-20T10:12:51.158Z,39.55
2019-03-20T10:15:33.102Z,39.32
2019-03-20T10:18:01.423Z,38.49
2019-03-20T10:20:29.755Z,37.21
2019-03-20T10:22:58.084Z,38.51
2019-03-20T10:25:26.370Z,37.63
2019-03-20T10:27:54.699Z,39.28
2019-03-20T10:30:26.852Z,36.35
2019-03-20T10:32:55.183Z,36.72
2019-03-20T10:35:23.485Z,35.00
2019-03-20T10:37:51.822Z,33.89
2019-03-20T10:40:24.063Z,35.40
2019-03-20T10:42:52.456Z,33.64
2019-03-20T10:45:20.939Z,33.74
2019-03-20T10:47:52.700Z,33.53
2019-03-20T10:50:24.867Z,34.73
2019-03-20T10:52:53.212Z,33.81
2019-03-20T10:55:21.551Z,32.26
2019-03-20T10:57:50.051Z,32.63
2019-03-20T11:00:22.403Z,31.22
2019-03-20T11:02:50.819Z,33.12
2019-03-20T11:05:19.218Z,35.37
2019-03-20T11:07:47.557Z,36.12
2019-03-20T11:10:21.007Z,33.59
2019-03-20T11:12:49.547Z,33.56
2019-03-20T11:15:19.096Z,32.66
2019-03-20T11:17:47.529Z,31.62
2019-03-20T11:20:17.115Z,32.07
2019-03-20T11:22:45.446Z,33.72
2019-03-20T11:25:15.647Z,31.76
2019-03-20T11:27:44.033Z,32.51
2019-03-20T11:30:17.807Z,31.79
2019-03-20T11:32:46.357Z,32.83
2019-03-20T11:35:15.050Z,34.38
2019-03-20T11:37:43.459Z,32.70
2019-03-20T11:40:17.940Z,33.19
2019-03-20T11:42:46.460Z,34.10
2019-03-20T11:45:14.861Z,36.20
2019-03-20T11:47:43.353Z,32.67
2019-03-20T11:50:20.473Z,33.51
2019-03-20T11:52:49.074Z,33.96
2019-03-20T11:55:17.612Z,34.46
2019-03-20T11:57:46.180Z,36.15
2019-03-20T12:00:25.045Z,38.55
2019-03-20T12:02:53.512Z,37.97
2019-03-20T12:05:21.847Z,34.69
2019-03-20T12:07:50.178Z,35.15
2019-03-20T12:10:21.772Z,33.17
2019-03-20T12:12:50.186Z,34.19
2019-03-20T12:15:18.686Z,33.89
2019-03-20T12:17:47.099Z,33.45
2019-03-20T12:20:23.428Z,34.37
2019-03-20T12:22:51.994Z,31.49
2019-03-20T12:25:26.042Z,33.18
2019-03-20T12:27:54.397Z,33.11
2019-03-20T12:30:26.091Z,32.88
2019-03-20T12:32:54.528Z,31.49
2019-03-20T12:35:23.792Z,33.70
2019-03-20T12:37:52.265Z,34.08
2019-03-20T12:40:30.873Z,33.51
2019-03-20T12:42:59.414Z,34.59
2019-03-20T12:45:35.041Z,33.91
2019-03-20T12:48:03.444Z,32.83
2019-03-20T12:50:31.898Z,31.45
2019-03-20T12:53:01.723Z,33.56
2019-03-20T12:55:31.213Z,33.42
2019-03-20T12:57:59.799Z,32.93
2019-03-20T13:00:28.568Z,33.66
2019-03-20T13:02:57.139Z,32.44
2019-03-20T13:05:25.746Z,33.49
2019-03-20T13:07:54.284Z,31.91
2019-03-20T13:10:27.678Z,32.36
2019-03-20T13:12:56.323Z,30.57
2019-03-20T13:15:25.655Z,32.00
2019-03-20T13:17:55.132Z,32.44
2019-03-20T13:20:23.647Z,31.87
2019-03-20T13:23:03.881Z,30.60
2019-03-20T13:25:32.565Z,30.88
2019-03-20T13:28:01.053Z,32.35
2019-03-20T13:31:01.742Z,31.06
2019-03-20T13:33:30.173Z,32.81
2019-03-20T13:35:58.545Z,33.92
2019-03-20T13:38:28.347Z,32.63
2019-03-20T13:40:56.823Z,31.85
2019-03-20T13:43:25.171Z,30.67
2019-03-20T13:45:53.564Z,31.46
2019-03-20T13:48:22.187Z,34.10
2019-03-20T13:50:50.564Z,32.97
2019-03-20T13:53:19.110Z,33.21
2019-03-20T13:55:47.676Z,33.34
2019-03-20T13:58:16.382Z,36.04
2019-03-20T14:00:45.064Z,36.37
2019-03-20T14:03:13.611Z,37.65
2019-03-20T14:05:42.008Z,36.68
2019-03-20T14:08:10.486Z,36.51
2019-03-20T14:10:49.404Z,38.22
2019-03-20T14:13:09.144Z,35.49
2019-03-20T14:15:37.821Z,36.91
2019-03-20T14:18:06.505Z,37.59
2019-03-20T14:20:35.147Z,37.05
2019-03-20T14:23:03.638Z,37.62
2019-03-20T14:25:32.076Z,37.28
2019-03-20T14:28:00.546Z,39.44
2019-03-20T14:30:35.243Z,39.33
2019-03-20T14:33:03.821Z,38.67
2019-03-20T14:35:32.217Z,39.64
2019-03-20T14:38:00.655Z,38.95
2019-03-20T14:40:36.216Z,39.25
2019-03-20T14:43:03.230Z,39.96
2019-03-20T14:45:31.947Z,39.97
2019-03-20T14:48:00.466Z,39.36
2019-03-20T14:50:33.256Z,40.19
2019-03-20T14:53:01.944Z,39.54
2019-03-20T14:55:30.467Z,39.57
2019-03-20T14:57:58.816Z,38.07
2019-03-20T15:00:30.976Z,38.41
2019-03-20T15:02:59.383Z,39.46
2019-03-20T15:05:27.720Z,38.61
2019-03-20T15:08:01.058Z,38.54
2019-03-20T15:10:29.450Z,38.14
2019-03-20T15:12:57.969Z,38.26
2019-03-20T15:15:42.041Z,40.68
2019-03-20T15:18:10.584Z,38.84
2019-03-20T15:20:39.161Z,39.53
2019-03-20T15:23:07.534Z,37.67
2019-03-20T15:25:35.992Z,38.65
2019-03-20T15:28:04.525Z,39.68
2019-03-20T15:30:32.902Z,39.55
2019-03-20T15:33:01.240Z,40.75
2019-03-20T15:35:29.567Z,40.49
2019-03-20T15:37:57.900Z,42.83
2019-03-20T15:40:30.939Z,40.51
2019-03-20T15:42:59.276Z,40.55
2019-03-20T15:45:27.610Z,40.12
2019-03-20T15:47:55.952Z,40.33
2019-03-20T15:50:28.615Z,40.65
2019-03-20T15:52:56.955Z,39.07
2019-03-20T15:55:30.296Z,40.87
2019-03-20T15:57:58.657Z,39.96
2019-03-20T16:00:26.986Z,39.96
2019-03-20T16:03:01.556Z,41.46
2019-03-20T16:05:29.889Z,42.34
2019-03-20T16:07:58.241Z,42.39
2019-03-20T16:10:26.539Z,42.32
2019-03-20T16:12:54.866Z,41.43
2019-03-20T16:15:23.957Z,42.83
2019-03-20T16:17:52.350Z,42.29
2019-03-20T16:20:20.675Z,42.30
2019-03-20T16:22:49.008Z,42.91
2019-03-20T16:25:19.165Z,42.66
2019-03-20T16:27:47.496Z,43.02
2019-03-20T16:30:21.579Z,43.13
2019-03-20T16:32:49.939Z,40.93
2019-03-20T16:35:18.266Z,43.05
2019-03-20T16:37:46.591Z,42.70
2019-03-20T16:40:23.916Z,42.63
2019-03-20T16:42:52.255Z,44.19
2019-03-20T16:45:22.750Z,45.33
2019-03-20T16:47:51.069Z,45.07
2019-03-20T16:50:19.490Z,46.70
2019-03-20T16:52:49.747Z,47.70
2019-03-20T16:55:18.065Z,47.66
2019-03-20T16:57:46.400Z,48.66
2019-03-20T17:00:24.273Z,49.11
2019-03-20T17:02:52.608Z,50.92
2019-03-20T17:05:21.256Z,53.79
2019-03-20T17:07:49.712Z,54.35
2019-03-20T17:10:36.566Z,53.60
2019-03-20T17:13:06.150Z,54.31
2019-03-20T17:15:41.915Z,54.10
2019-03-20T17:18:10.274Z,54.47
2019-03-20T17:20:38.815Z,58.22
2019-03-20T17:23:07.928Z,57.53
2019-03-20T17:25:36.760Z,56.33
2019-03-20T17:28:05.639Z,54.55
2019-03-20T17:30:38.332Z,54.21
2019-03-20T17:33:07.355Z,54.65
2019-03-20T17:35:35.685Z,54.77
2019-03-20T17:38:04.372Z,54.45
2019-03-20T17:40:32.980Z,54.68
2019-03-20T17:43:01.580Z,55.36
2019-03-20T17:45:30.047Z,55.74
2019-03-20T17:47:58.640Z,55.65
2019-03-20T17:50:33.848Z,55.49
2019-03-20T17:53:02.499Z,56.73
2019-03-20T17:55:30.831Z,58.02
2019-03-20T17:57:59.180Z,59.37
2019-03-20T18:00:38.216Z,59.39
2019-03-20T18:03:06.981Z,59.51
2019-03-20T18:05:35.320Z,60.00
2019-03-20T18:08:04.494Z,61.04
2019-03-20T18:10:33.309Z,62.03
2019-03-20T18:13:01.855Z,66.39
2019-03-20T18:15:30.196Z,67.27
2019-03-20T18:17:58.513Z,68.67
2019-03-20T18:20:26.900Z,68.74
2019-03-20T18:22:55.226Z,69.10
2019-03-20T18:25:23.553Z,69.22
2019-03-20T18:27:51.961Z,73.53
2019-03-20T18:30:31.584Z,74.74
2019-03-20T18:32:59.936Z,77.14
2019-03-20T18:35:28.226Z,82.00
2019-03-20T18:37:56.517Z,81.89
2019-03-20T18:40:26.238Z,81.80
2019-03-20T18:42:54.594Z,84.95
2019-03-20T18:45:23.779Z,82.85
2019-03-20T18:47:52.028Z,83.44
2019-03-20T18:50:21.020Z,85.05
2019-03-20T18:52:49.394Z,84.37
2019-03-20T18:55:18.373Z,84.07
2019-03-20T18:57:46.893Z,83.08
2019-03-20T19:00:33.318Z,82.42
2019-03-20T19:03:19.758Z,85.09
2019-03-20T19:05:54.158Z,86.83
2019-03-20T19:08:22.479Z,90.07
2019-03-20T19:10:50.811Z,91.35
2019-03-20T19:13:19.066Z,91.06
2019-03-20T19:15:47.785Z,89.32
2019-03-20T19:18:16.129Z,88.02
2019-03-20T19:20:44.378Z,92.01
2019-03-20T19:23:12.641Z,93.44
2019-03-20T19:25:40.888Z,93.38
2019-03-20T19:28:09.154Z,86.55
2019-03-20T19:30:37.395Z,85.79
2019-03-20T19:33:05.739Z,85.58
2019-03-20T19:35:34.056Z,83.88
2019-03-20T19:38:02.317Z,84.18
2019-03-20T19:40:30.577Z,86.15
2019-03-20T19:42:58.819Z,88.38
2019-03-20T19:45:27.071Z,88.39
2019-03-20T19:47:55.329Z,91.73
2019-03-20T19:50:24.224Z,92.78
2019-03-20T19:52:52.471Z,93.17
2019-03-20T19:55:20.727Z,95.59
2019-03-20T19:57:48.983Z,95.37
2019-03-20T20:00:18.676Z,94.42
2019-03-20T20:02:46.990Z,94.58
2019-03-20T20:05:16.278Z,89.53
2019-03-20T20:07:44.770Z,89.27
2019-03-20T20:10:14.465Z,92.26
2019-03-20T20:12:42.683Z,92.60
2019-03-20T20:15:23.145Z,95.11
2019-03-20T20:17:51.510Z,95.55
2019-03-20T20:20:39.443Z,98.61
2019-03-20T20:23:07.748Z,100.00
2019-03-20T20:25:35.997Z,100.00
2019-03-20T20:28:04.368Z,100.00
2019-03-20T20:30:32.645Z,100.00
2019-03-20T20:33:00.908Z,100.00
2019-03-20T20:35:29.219Z,100.00
2019-03-20T20:37:57.556Z,97.35
2019-03-20T20:40:28.206Z,99.32
2019-03-20T20:42:56.495Z,100.00
2019-03-20T20:45:24.772Z,100.00
2019-03-20T20:47:53.012Z,100.00
2019-03-20T20:50:21.276Z,100.00
2019-03-20T20:52:49.613Z,100.00
2019-03-20T20:55:22.542Z,100.00
2019-03-20T20:57:50.920Z,100.00
2019-03-20T21:00:22.922Z,100.00
2019-03-20T21:02:51.306Z,100.00
2019-03-20T21:05:19.544Z,100.00
2019-03-20T21:07:47.915Z,100.00
2019-03-20T21:10:17.349Z,100.00
2019-03-20T21:12:55.480Z,100.00
2019-03-20T21:15:34.706Z,100.00
2019-03-20T21:18:15.428Z,100.00
2019-03-20T21:20:46.015Z,100.00
2019-03-20T21:23:34.119Z,100.00
2019-03-20T21:26:02.666Z,100.00
2019-03-20T21:28:52.266Z,100.00
2019-03-20T21:31:29.808Z,100.00
2019-03-20T21:34:10.267Z,100.00
2019-03-20T21:36:47.587Z,100.00
2019-03-20T21:39:15.894Z,100.00
2019-03-20T21:42:02.706Z,100.00
2019-03-20T21:44:50.781Z,100.00
2019-03-20T21:47:33.759Z,100.00
2019-03-20T21:50:20.373Z,100.00
2019-03-20T21:52:48.657Z,100.00
2019-03-20T21:55:23.398Z,100.00
2019-03-20T21:57:55.006Z,100.00
2019-03-20T22:00:52.467Z,100.00
2019-03-20T22:03:20.717Z,100.00
2019-03-20T22:06:04.357Z,100.00
2019-03-20T22:08:32.678Z,100.00
2019-03-20T22:11:26.919Z,100.00
2019-03-20T22:13:58.509Z,100.00
2019-03-20T22:17:03.264Z,100.00
2019-03-20T22:19:43.798Z,100.00
2019-03-20T22:22:20.988Z,100.00
2019-03-20T22:25:03.682Z,100.00
2019-03-20T22:28:08.866Z,100.00
2019-03-20T22:30:37.128Z,100.00
2019-03-20T22:33:25.366Z,100.00
2019-03-20T22:35:53.741Z,100.00
2019-03-20T22:38:31.087Z,100.00
2019-03-20T22:41:11.375Z,100.00
2019-03-20T22:43:48.200Z,100.00
2019-03-20T22:46:34.954Z,100.00
2019-03-20T22:49:25.391Z,100.00
2019-03-20T22:52:09.973Z,100.00
2019-03-20T22:55:08.987Z,100.00
2019-03-20T22:57:58.680Z,100.00
2019-03-20T23:00:28.297Z,100.00
2019-03-20T23:03:12.732Z,100.00
2019-03-20T23:05:41.004Z,100.00
2019-03-20T23:08:16.147Z,100.00
2019-03-20T23:10:47.490Z,100.00
2019-03-20T23:13:19.260Z,100.00
2019-03-20T23:15:45.826Z,100.00
2019-03-20T23:18:14.094Z,100.00
2019-03-20T23:20:43.363Z,100.00
2019-03-20T23:23:11.734Z,100.00
2019-03-20T23:25:40.131Z,100.00
2019-03-20T23:28:08.402Z,100.00
2019-03-20T23:30:36.657Z,100.00
2019-03-20T23:33:05.003Z,100.00
2019-03-20T23:35:33.273Z,100.00
2019-03-20T23:38:01.692Z,100.00
2019-03-20T23:40:30.289Z,100.00
2019-03-20T23:43:04.190Z,100.00
2019-03-20T23:45:32.440Z,100.00
2019-03-20T23:48:13.187Z,100.00
2019-03-20T23:50:41.507Z,100.00
2019-03-20T23:53:09.761Z,100.00
2019-03-20T23:55:38.026Z,100.00
2019-03-20T23:58:06.283Z,100.00
